sensor_id;sensor_type;location;lat;lon;timestamp;P1;durP1;ratioP1;P2;durP2;ratioP2
21424;SDS011;10873;51.132;16.848;2023-07-13T00:00:52;7.50;;;4.10;;
21424;SDS011;10873;51.132;16.848;2023-07-13T00:03:39;5.90;;;3.72;;
21424;SDS011;10873;51.132;16.848;2023-07-13T00:06:06;4.43;;;3.53;;
21424;SDS011;10873;51.132;16.848;2023-07-13T00:08:33;4.82;;;3.72;;
21424;SDS011;10873;51.132;16.848;2023-07-13T00:10:59;7.43;;;3.92;;
21424;SDS011;10873;51.132;16.848;2023-07-13T00:13:25;4.47;;;3.35;;
21424;SDS011;10873;51.132;16.848;2023-07-13T00:15:52;6.30;;;3.50;;
21424;SDS011;10873;51.132;16.848;2023-07-13T00:18:19;4.80;;;3.42;;
21424;SDS011;10873;51.132;16.848;2023-07-13T00:20:46;4.65;;;3.72;;
21424;SDS011;10873;51.132;16.848;2023-07-13T00:23:13;4.78;;;3.95;;
21424;SDS011;10873;51.132;16.848;2023-07-13T00:25:39;5.70;;;3.60;;
21424;SDS011;10873;51.132;16.848;2023-07-13T00:28:05;5.35;;;3.80;;
21424;SDS011;10873;51.132;16.848;2023-07-13T00:30:32;3.65;;;3.15;;
21424;SDS011;10873;51.132;16.848;2023-07-13T00:32:58;6.00;;;3.35;;
21424;SDS011;10873;51.132;16.848;2023-07-13T00:35:27;4.30;;;3.55;;
21424;SDS011;10873;51.132;16.848;2023-07-13T00:37:56;7.55;;;3.78;;
21424;SDS011;10873;51.132;16.848;2023-07-13T00:40:22;5.32;;;3.83;;
21424;SDS011;10873;51.132;16.848;2023-07-13T00:42:48;4.60;;;3.65;;
21424;SDS011;10873;51.132;16.848;2023-07-13T00:48:21;4.82;;;3.50;;
21424;SDS011;10873;51.132;16.848;2023-07-13T00:50:52;6.43;;;3.55;;
21424;SDS011;10873;51.132;16.848;2023-07-13T00:53:22;4.70;;;3.40;;
21424;SDS011;10873;51.132;16.848;2023-07-13T00:55:49;5.28;;;3.70;;
21424;SDS011;10873;51.132;16.848;2023-07-13T00:58:17;4.55;;;3.17;;
21424;SDS011;10873;51.132;16.848;2023-07-13T01:00:43;4.97;;;3.17;;
21424;SDS011;10873;51.132;16.848;2023-07-13T01:03:10;5.15;;;3.63;;
21424;SDS011;10873;51.132;16.848;2023-07-13T01:05:37;6.05;;;3.60;;
21424;SDS011;10873;51.132;16.848;2023-07-13T01:08:04;6.45;;;3.78;;
21424;SDS011;10873;51.132;16.848;2023-07-13T01:10:32;4.97;;;3.95;;
21424;SDS011;10873;51.132;16.848;2023-07-13T01:13:04;5.95;;;3.92;;
21424;SDS011;10873;51.132;16.848;2023-07-13T01:15:34;4.95;;;3.75;;
21424;SDS011;10873;51.132;16.848;2023-07-13T01:18:02;4.63;;;3.42;;
21424;SDS011;10873;51.132;16.848;2023-07-13T01:20:29;5.07;;;3.85;;
21424;SDS011;10873;51.132;16.848;2023-07-13T01:22:57;5.40;;;3.88;;
21424;SDS011;10873;51.132;16.848;2023-07-13T01:25:25;6.18;;;4.00;;
21424;SDS011;10873;51.132;16.848;2023-07-13T01:27:51;4.93;;;3.55;;
21424;SDS011;10873;51.132;16.848;2023-07-13T01:30:17;4.80;;;3.60;;
21424;SDS011;10873;51.132;16.848;2023-07-13T01:32:43;3.85;;;3.13;;
21424;SDS011;10873;51.132;16.848;2023-07-13T01:35:09;5.80;;;3.90;;
21424;SDS011;10873;51.132;16.848;2023-07-13T01:37:37;4.60;;;3.60;;
21424;SDS011;10873;51.132;16.848;2023-07-13T01:40:06;5.82;;;3.95;;
21424;SDS011;10873;51.132;16.848;2023-07-13T01:42:33;5.18;;;3.47;;
21424;SDS011;10873;51.132;16.848;2023-07-13T01:45:00;5.10;;;3.83;;
21424;SDS011;10873;51.132;16.848;2023-07-13T01:47:26;4.30;;;3.58;;
21424;SDS011;10873;51.132;16.848;2023-07-13T01:49:53;5.10;;;3.30;;
21424;SDS011;10873;51.132;16.848;2023-07-13T01:52:19;4.75;;;3.33;;
21424;SDS011;10873;51.132;16.848;2023-07-13T01:54:45;5.72;;;3.28;;
21424;SDS011;10873;51.132;16.848;2023-07-13T01:57:12;3.97;;;3.05;;
21424;SDS011;10873;51.132;16.848;2023-07-13T01:59:38;3.88;;;2.97;;
21424;SDS011;10873;51.132;16.848;2023-07-13T02:02:04;4.18;;;3.05;;
21424;SDS011;10873;51.132;16.848;2023-07-13T02:04:30;3.85;;;3.05;;
21424;SDS011;10873;51.132;16.848;2023-07-13T02:06:56;4.85;;;3.10;;
21424;SDS011;10873;51.132;16.848;2023-07-13T02:09:23;3.58;;;2.90;;
21424;SDS011;10873;51.132;16.848;2023-07-13T02:11:49;5.18;;;3.20;;
21424;SDS011;10873;51.132;16.848;2023-07-13T02:14:16;5.75;;;3.08;;
21424;SDS011;10873;51.132;16.848;2023-07-13T02:16:42;4.05;;;3.10;;
21424;SDS011;10873;51.132;16.848;2023-07-13T02:19:08;3.00;;;2.70;;
21424;SDS011;10873;51.132;16.848;2023-07-13T02:21:34;3.22;;;2.92;;
21424;SDS011;10873;51.132;16.848;2023-07-13T02:24:00;3.05;;;2.75;;
21424;SDS011;10873;51.132;16.848;2023-07-13T02:26:26;3.45;;;3.00;;
21424;SDS011;10873;51.132;16.848;2023-07-13T02:28:53;3.83;;;3.05;;
21424;SDS011;10873;51.132;16.848;2023-07-13T02:31:20;4.95;;;2.97;;
21424;SDS011;10873;51.132;16.848;2023-07-13T02:33:46;4.78;;;3.50;;
21424;SDS011;10873;51.132;16.848;2023-07-13T02:36:13;4.38;;;3.58;;
21424;SDS011;10873;51.132;16.848;2023-07-13T02:38:41;6.85;;;3.38;;
21424;SDS011;10873;51.132;16.848;2023-07-13T02:41:08;4.63;;;3.30;;
21424;SDS011;10873;51.132;16.848;2023-07-13T02:43:34;5.72;;;3.00;;
21424;SDS011;10873;51.132;16.848;2023-07-13T02:46:00;4.75;;;2.88;;
21424;SDS011;10873;51.132;16.848;2023-07-13T02:48:34;3.95;;;2.97;;
21424;SDS011;10873;51.132;16.848;2023-07-13T02:51:00;4.82;;;3.05;;
21424;SDS011;10873;51.132;16.848;2023-07-13T02:53:26;4.38;;;3.03;;
21424;SDS011;10873;51.132;16.848;2023-07-13T02:55:52;4.47;;;3.15;;
21424;SDS011;10873;51.132;16.848;2023-07-13T02:58:18;3.10;;;2.55;;
21424;SDS011;10873;51.132;16.848;2023-07-13T03:00:45;6.55;;;2.95;;
21424;SDS011;10873;51.132;16.848;2023-07-13T03:03:12;3.17;;;2.88;;
21424;SDS011;10873;51.132;16.848;2023-07-13T03:05:41;7.47;;;3.25;;
21424;SDS011;10873;51.132;16.848;2023-07-13T03:08:08;4.00;;;2.63;;
21424;SDS011;10873;51.132;16.848;2023-07-13T03:10:35;4.43;;;2.78;;
21424;SDS011;10873;51.132;16.848;2023-07-13T03:13:01;4.07;;;2.90;;
21424;SDS011;10873;51.132;16.848;2023-07-13T03:15:27;4.82;;;3.42;;
21424;SDS011;10873;51.132;16.848;2023-07-13T03:17:53;5.40;;;3.40;;
21424;SDS011;10873;51.132;16.848;2023-07-13T03:20:19;6.25;;;3.83;;
21424;SDS011;10873;51.132;16.848;2023-07-13T03:22:47;8.27;;;4.03;;
21424;SDS011;10873;51.132;16.848;2023-07-13T03:25:13;5.63;;;4.05;;
21424;SDS011;10873;51.132;16.848;2023-07-13T03:27:39;7.72;;;4.60;;
21424;SDS011;10873;51.132;16.848;2023-07-13T03:30:05;5.95;;;4.18;;
21424;SDS011;10873;51.132;16.848;2023-07-13T03:32:32;6.30;;;4.30;;
21424;SDS011;10873;51.132;16.848;2023-07-13T03:34:58;7.35;;;4.32;;
21424;SDS011;10873;51.132;16.848;2023-07-13T03:37:24;6.45;;;4.72;;
21424;SDS011;10873;51.132;16.848;2023-07-13T03:39:52;6.18;;;4.00;;
21424;SDS011;10873;51.132;16.848;2023-07-13T03:42:18;8.15;;;4.53;;
21424;SDS011;10873;51.132;16.848;2023-07-13T03:44:44;8.57;;;4.40;;
21424;SDS011;10873;51.132;16.848;2023-07-13T03:47:16;6.30;;;4.30;;
21424;SDS011;10873;51.132;16.848;2023-07-13T03:49:42;6.40;;;4.30;;
21424;SDS011;10873;51.132;16.848;2023-07-13T03:52:08;7.72;;;4.25;;
21424;SDS011;10873;51.132;16.848;2023-07-13T03:54:34;9.23;;;4.40;;
21424;SDS011;10873;51.132;16.848;2023-07-13T03:57:01;5.22;;;3.95;;
21424;SDS011;10873;51.132;16.848;2023-07-13T03:59:27;23.15;;;7.20;;
21424;SDS011;10873;51.132;16.848;2023-07-13T04:01:53;25.95;;;7.78;;
21424;SDS011;10873;51.132;16.848;2023-07-13T04:04:20;18.42;;;6.70;;
21424;SDS011;10873;51.132;16.848;2023-07-13T04:06:46;19.52;;;6.40;;
21424;SDS011;10873;51.132;16.848;2023-07-13T04:09:12;14.40;;;5.95;;
21424;SDS011;10873;51.132;16.848;2023-07-13T04:11:38;15.32;;;6.35;;
21424;SDS011;10873;51.132;16.848;2023-07-13T04:14:05;12.88;;;5.05;;
21424;SDS011;10873;51.132;16.848;2023-07-13T04:16:32;10.48;;;4.45;;
21424;SDS011;10873;51.132;16.848;2023-07-13T04:18:58;14.95;;;5.38;;
21424;SDS011;10873;51.132;16.848;2023-07-13T04:21:27;10.57;;;4.95;;
21424;SDS011;10873;51.132;16.848;2023-07-13T04:23:54;12.10;;;4.93;;
21424;SDS011;10873;51.132;16.848;2023-07-13T04:26:20;7.32;;;4.65;;
21424;SDS011;10873;51.132;16.848;2023-07-13T04:28:48;8.27;;;4.55;;
21424;SDS011;10873;51.132;16.848;2023-07-13T04:31:15;8.10;;;3.95;;
21424;SDS011;10873;51.132;16.848;2023-07-13T04:33:41;10.23;;;4.30;;
21424;SDS011;10873;51.132;16.848;2023-07-13T04:36:08;8.60;;;4.30;;
21424;SDS011;10873;51.132;16.848;2023-07-13T04:38:35;9.57;;;4.15;;
21424;SDS011;10873;51.132;16.848;2023-07-13T04:41:02;10.48;;;4.80;;
21424;SDS011;10873;51.132;16.848;2023-07-13T04:43:30;8.50;;;4.63;;
21424;SDS011;10873;51.132;16.848;2023-07-13T04:45:57;8.40;;;5.13;;
21424;SDS011;10873;51.132;16.848;2023-07-13T04:48:30;9.20;;;4.95;;
21424;SDS011;10873;51.132;16.848;2023-07-13T04:50:56;9.35;;;4.93;;
21424;SDS011;10873;51.132;16.848;2023-07-13T04:53:23;8.68;;;5.05;;
21424;SDS011;10873;51.132;16.848;2023-07-13T04:55:50;9.18;;;4.93;;
21424;SDS011;10873;51.132;16.848;2023-07-13T04:58:16;11.27;;;5.07;;
21424;SDS011;10873;51.132;16.848;2023-07-13T05:00:42;13.50;;;6.18;;
21424;SDS011;10873;51.132;16.848;2023-07-13T05:03:08;10.80;;;5.40;;
21424;SDS011;10873;51.132;16.848;2023-07-13T05:05:35;11.25;;;5.55;;
21424;SDS011;10873;51.132;16.848;2023-07-13T05:08:01;8.32;;;5.20;;
21424;SDS011;10873;51.132;16.848;2023-07-13T05:10:27;7.65;;;4.32;;
21424;SDS011;10873;51.132;16.848;2023-07-13T05:12:54;9.80;;;4.30;;
21424;SDS011;10873;51.132;16.848;2023-07-13T05:15:20;7.65;;;4.32;;
21424;SDS011;10873;51.132;16.848;2023-07-13T05:17:47;11.32;;;5.93;;
21424;SDS011;10873;51.132;16.848;2023-07-13T05:20:14;15.15;;;9.63;;
21424;SDS011;10873;51.132;16.848;2023-07-13T05:22:41;19.77;;;11.93;;
21424;SDS011;10873;51.132;16.848;2023-07-13T05:25:08;17.77;;;10.07;;
21424;SDS011;10873;51.132;16.848;2023-07-13T05:27:34;11.32;;;6.95;;
21424;SDS011;10873;51.132;16.848;2023-07-13T05:30:01;8.45;;;6.05;;
21424;SDS011;10873;51.132;16.848;2023-07-13T05:32:28;11.15;;;6.40;;
21424;SDS011;10873;51.132;16.848;2023-07-13T05:34:54;11.98;;;5.72;;
21424;SDS011;10873;51.132;16.848;2023-07-13T05:37:20;10.68;;;5.13;;
21424;SDS011;10873;51.132;16.848;2023-07-13T05:39:48;9.63;;;5.90;;
21424;SDS011;10873;51.132;16.848;2023-07-13T05:42:14;8.32;;;5.57;;
21424;SDS011;10873;51.132;16.848;2023-07-13T05:44:40;8.27;;;5.10;;
21424;SDS011;10873;51.132;16.848;2023-07-13T05:47:06;19.35;;;6.20;;
21424;SDS011;10873;51.132;16.848;2023-07-13T05:49:32;11.25;;;5.43;;
21424;SDS011;10873;51.132;16.848;2023-07-13T05:51:58;9.93;;;4.65;;
21424;SDS011;10873;51.132;16.848;2023-07-13T05:54:24;11.63;;;5.00;;
21424;SDS011;10873;51.132;16.848;2023-07-13T05:56:51;8.75;;;4.38;;
21424;SDS011;10873;51.132;16.848;2023-07-13T05:59:17;9.18;;;4.03;;
21424;SDS011;10873;51.132;16.848;2023-07-13T06:01:43;8.32;;;4.18;;
21424;SDS011;10873;51.132;16.848;2023-07-13T06:04:10;9.65;;;3.72;;
21424;SDS011;10873;51.132;16.848;2023-07-13T06:06:36;11.35;;;3.67;;
21424;SDS011;10873;51.132;16.848;2023-07-13T06:09:02;6.07;;;3.53;;
21424;SDS011;10873;51.132;16.848;2023-07-13T06:11:28;6.82;;;3.28;;
21424;SDS011;10873;51.132;16.848;2023-07-13T06:13:56;6.00;;;2.90;;
21424;SDS011;10873;51.132;16.848;2023-07-13T06:16:23;5.97;;;2.75;;
21424;SDS011;10873;51.132;16.848;2023-07-13T06:18:49;4.72;;;2.58;;
21424;SDS011;10873;51.132;16.848;2023-07-13T06:21:15;5.70;;;2.70;;
21424;SDS011;10873;51.132;16.848;2023-07-13T06:23:43;6.45;;;2.67;;
21424;SDS011;10873;51.132;16.848;2023-07-13T06:26:12;6.97;;;2.60;;
21424;SDS011;10873;51.132;16.848;2023-07-13T06:28:39;8.32;;;2.80;;
21424;SDS011;10873;51.132;16.848;2023-07-13T06:31:06;4.45;;;2.35;;
21424;SDS011;10873;51.132;16.848;2023-07-13T06:33:34;5.38;;;2.42;;
21424;SDS011;10873;51.132;16.848;2023-07-13T06:36:01;7.97;;;2.53;;
21424;SDS011;10873;51.132;16.848;2023-07-13T06:38:27;9.05;;;2.42;;
21424;SDS011;10873;51.132;16.848;2023-07-13T06:40:53;6.18;;;2.58;;
21424;SDS011;10873;51.132;16.848;2023-07-13T06:43:19;4.65;;;2.13;;
21424;SDS011;10873;51.132;16.848;2023-07-13T06:45:46;6.95;;;2.42;;
21424;SDS011;10873;51.132;16.848;2023-07-13T06:48:16;6.50;;;2.50;;
21424;SDS011;10873;51.132;16.848;2023-07-13T06:50:43;7.28;;;2.17;;
21424;SDS011;10873;51.132;16.848;2023-07-13T06:53:10;8.43;;;2.63;;
21424;SDS011;10873;51.132;16.848;2023-07-13T06:55:37;10.43;;;3.50;;
21424;SDS011;10873;51.132;16.848;2023-07-13T06:58:04;10.30;;;2.60;;
21424;SDS011;10873;51.132;16.848;2023-07-13T07:00:30;4.68;;;2.50;;
21424;SDS011;10873;51.132;16.848;2023-07-13T07:02:56;7.28;;;3.08;;
21424;SDS011;10873;51.132;16.848;2023-07-13T07:05:24;11.90;;;3.63;;
21424;SDS011;10873;51.132;16.848;2023-07-13T07:07:50;9.07;;;3.22;;
21424;SDS011;10873;51.132;16.848;2023-07-13T07:10:17;7.85;;;3.05;;
21424;SDS011;10873;51.132;16.848;2023-07-13T07:12:44;10.13;;;4.18;;
21424;SDS011;10873;51.132;16.848;2023-07-13T07:15:10;8.15;;;3.80;;
21424;SDS011;10873;51.132;16.848;2023-07-13T07:17:36;8.75;;;3.25;;
21424;SDS011;10873;51.132;16.848;2023-07-13T07:20:03;16.05;;;3.78;;
21424;SDS011;10873;51.132;16.848;2023-07-13T07:22:31;14.70;;;5.00;;
21424;SDS011;10873;51.132;16.848;2023-07-13T07:24:57;9.88;;;4.15;;
21424;SDS011;10873;51.132;16.848;2023-07-13T07:27:23;9.10;;;3.85;;
21424;SDS011;10873;51.132;16.848;2023-07-13T07:29:49;17.58;;;5.72;;
21424;SDS011;10873;51.132;16.848;2023-07-13T07:32:15;15.45;;;5.60;;
21424;SDS011;10873;51.132;16.848;2023-07-13T07:34:41;10.82;;;4.40;;
21424;SDS011;10873;51.132;16.848;2023-07-13T07:37:09;11.07;;;4.03;;
21424;SDS011;10873;51.132;16.848;2023-07-13T07:39:38;17.63;;;6.35;;
21424;SDS011;10873;51.132;16.848;2023-07-13T07:42:04;12.55;;;5.35;;
21424;SDS011;10873;51.132;16.848;2023-07-13T07:44:31;11.80;;;4.97;;
21424;SDS011;10873;51.132;16.848;2023-07-13T07:46:57;12.30;;;5.07;;
21424;SDS011;10873;51.132;16.848;2023-07-13T07:49:23;16.75;;;5.75;;
21424;SDS011;10873;51.132;16.848;2023-07-13T07:51:50;13.57;;;4.18;;
21424;SDS011;10873;51.132;16.848;2023-07-13T07:54:16;10.55;;;4.40;;
21424;SDS011;10873;51.132;16.848;2023-07-13T07:56:44;17.58;;;5.97;;
21424;SDS011;10873;51.132;16.848;2023-07-13T07:59:10;16.08;;;5.85;;
21424;SDS011;10873;51.132;16.848;2023-07-13T08:01:36;11.40;;;5.18;;
21424;SDS011;10873;51.132;16.848;2023-07-13T08:04:02;13.63;;;4.88;;
21424;SDS011;10873;51.132;16.848;2023-07-13T08:06:29;15.18;;;5.97;;
21424;SDS011;10873;51.132;16.848;2023-07-13T08:08:58;14.00;;;6.05;;
21424;SDS011;10873;51.132;16.848;2023-07-13T08:11:24;13.02;;;4.82;;
21424;SDS011;10873;51.132;16.848;2023-07-13T08:13:52;10.38;;;4.00;;
21424;SDS011;10873;51.132;16.848;2023-07-13T08:16:18;10.05;;;5.00;;
21424;SDS011;10873;51.132;16.848;2023-07-13T08:18:44;8.27;;;4.95;;
21424;SDS011;10873;51.132;16.848;2023-07-13T08:21:10;12.60;;;4.38;;
21424;SDS011;10873;51.132;16.848;2023-07-13T08:23:36;14.52;;;5.25;;
21424;SDS011;10873;51.132;16.848;2023-07-13T08:26:02;12.75;;;5.45;;
21424;SDS011;10873;51.132;16.848;2023-07-13T08:28:29;7.55;;;4.18;;
21424;SDS011;10873;51.132;16.848;2023-07-13T08:31:01;15.60;;;4.40;;
21424;SDS011;10873;51.132;16.848;2023-07-13T08:33:27;16.00;;;4.75;;
21424;SDS011;10873;51.132;16.848;2023-07-13T08:35:53;13.35;;;4.10;;
21424;SDS011;10873;51.132;16.848;2023-07-13T08:38:19;12.32;;;3.95;;
21424;SDS011;10873;51.132;16.848;2023-07-13T08:40:48;10.98;;;3.70;;
21424;SDS011;10873;51.132;16.848;2023-07-13T08:43:17;12.23;;;3.60;;
21424;SDS011;10873;51.132;16.848;2023-07-13T08:45:49;10.25;;;3.92;;
21424;SDS011;10873;51.132;16.848;2023-07-13T08:48:20;8.80;;;3.58;;
21424;SDS011;10873;51.132;16.848;2023-07-13T08:50:53;9.15;;;3.60;;
21424;SDS011;10873;51.132;16.848;2023-07-13T08:53:22;7.10;;;3.22;;
21424;SDS011;10873;51.132;16.848;2023-07-13T08:55:55;5.68;;;2.95;;
21424;SDS011;10873;51.132;16.848;2023-07-13T08:58:24;8.32;;;2.85;;
21424;SDS011;10873;51.132;16.848;2023-07-13T09:00:55;7.40;;;2.80;;
21424;SDS011;10873;51.132;16.848;2023-07-13T09:03:28;10.30;;;2.72;;
21424;SDS011;10873;51.132;16.848;2023-07-13T09:05:59;11.20;;;2.60;;
21424;SDS011;10873;51.132;16.848;2023-07-13T09:08:31;7.65;;;2.60;;
21424;SDS011;10873;51.132;16.848;2023-07-13T09:11:06;7.25;;;2.53;;
21424;SDS011;10873;51.132;16.848;2023-07-13T09:13:47;9.68;;;2.63;;
21424;SDS011;10873;51.132;16.848;2023-07-13T09:16:22;5.40;;;2.20;;
21424;SDS011;10873;51.132;16.848;2023-07-13T09:18:51;5.55;;;2.30;;
21424;SDS011;10873;51.132;16.848;2023-07-13T09:21:20;6.43;;;2.30;;
21424;SDS011;10873;51.132;16.848;2023-07-13T09:23:50;4.13;;;2.25;;
21424;SDS011;10873;51.132;16.848;2023-07-13T09:26:21;4.65;;;2.10;;
21424;SDS011;10873;51.132;16.848;2023-07-13T09:28:49;4.15;;;2.03;;
21424;SDS011;10873;51.132;16.848;2023-07-13T09:31:20;3.28;;;2.00;;
21424;SDS011;10873;51.132;16.848;2023-07-13T09:33:51;3.42;;;2.00;;
21424;SDS011;10873;51.132;16.848;2023-07-13T09:36:18;3.47;;;1.80;;
21424;SDS011;10873;51.132;16.848;2023-07-13T09:38:46;5.20;;;2.10;;
21424;SDS011;10873;51.132;16.848;2023-07-13T09:41:16;4.05;;;1.83;;
21424;SDS011;10873;51.132;16.848;2023-07-13T09:44:06;2.83;;;1.80;;
21424;SDS011;10873;51.132;16.848;2023-07-13T09:46:37;55.28;;;5.60;;
21424;SDS011;10873;51.132;16.848;2023-07-13T09:49:07;29.70;;;4.10;;
21424;SDS011;10873;51.132;16.848;2023-07-13T09:51:34;27.52;;;3.22;;
21424;SDS011;10873;51.132;16.848;2023-07-13T09:54:00;24.73;;;3.45;;
21424;SDS011;10873;51.132;16.848;2023-07-13T09:56:28;15.70;;;2.97;;
21424;SDS011;10873;51.132;16.848;2023-07-13T09:58:55;10.35;;;2.55;;
21424;SDS011;10873;51.132;16.848;2023-07-13T10:01:30;7.93;;;2.42;;
21424;SDS011;10873;51.132;16.848;2023-07-13T10:03:59;7.45;;;2.30;;
21424;SDS011;10873;51.132;16.848;2023-07-13T10:06:26;3.95;;;1.90;;
21424;SDS011;10873;51.132;16.848;2023-07-13T10:08:53;8.90;;;2.30;;
21424;SDS011;10873;51.132;16.848;2023-07-13T10:11:24;6.10;;;2.25;;
21424;SDS011;10873;51.132;16.848;2023-07-13T10:13:55;3.90;;;2.00;;
21424;SDS011;10873;51.132;16.848;2023-07-13T10:16:25;17.27;;;2.20;;
21424;SDS011;10873;51.132;16.848;2023-07-13T10:18:55;4.35;;;2.35;;
21424;SDS011;10873;51.132;16.848;2023-07-13T10:21:23;4.78;;;1.83;;
21424;SDS011;10873;51.132;16.848;2023-07-13T10:23:56;3.08;;;1.75;;
21424;SDS011;10873;51.132;16.848;2023-07-13T10:26:29;2.92;;;1.98;;
21424;SDS011;10873;51.132;16.848;2023-07-13T10:28:59;3.63;;;1.60;;
21424;SDS011;10873;51.132;16.848;2023-07-13T10:31:29;4.20;;;1.70;;
21424;SDS011;10873;51.132;16.848;2023-07-13T10:33:56;2.80;;;1.60;;
21424;SDS011;10873;51.132;16.848;2023-07-13T10:36:33;3.70;;;1.88;;
21424;SDS011;10873;51.132;16.848;2023-07-13T10:39:04;2.30;;;1.80;;
21424;SDS011;10873;51.132;16.848;2023-07-13T10:41:32;2.38;;;1.70;;
21424;SDS011;10873;51.132;16.848;2023-07-13T10:44:01;2.28;;;1.92;;
21424;SDS011;10873;51.132;16.848;2023-07-13T10:46:29;3.55;;;1.70;;
21424;SDS011;10873;51.132;16.848;2023-07-13T10:48:57;2.33;;;1.75;;
21424;SDS011;10873;51.132;16.848;2023-07-13T10:51:26;3.65;;;2.13;;
21424;SDS011;10873;51.132;16.848;2023-07-13T10:56:48;5.00;;;1.80;;
21424;SDS011;10873;51.132;16.848;2023-07-13T10:59:17;4.03;;;2.00;;
21424;SDS011;10873;51.132;16.848;2023-07-13T11:01:51;3.28;;;1.88;;
21424;SDS011;10873;51.132;16.848;2023-07-13T11:04:21;4.68;;;1.73;;
21424;SDS011;10873;51.132;16.848;2023-07-13T11:06:50;4.18;;;1.60;;
21424;SDS011;10873;51.132;16.848;2023-07-13T11:09:33;3.65;;;2.05;;
21424;SDS011;10873;51.132;16.848;2023-07-13T11:12:07;3.15;;;1.77;;
21424;SDS011;10873;51.132;16.848;2023-07-13T11:14:42;4.53;;;1.80;;
21424;SDS011;10873;51.132;16.848;2023-07-13T11:17:24;2.97;;;2.10;;
21424;SDS011;10873;51.132;16.848;2023-07-13T11:20:09;3.25;;;1.90;;
21424;SDS011;10873;51.132;16.848;2023-07-13T11:22:46;2.47;;;1.75;;
21424;SDS011;10873;51.132;16.848;2023-07-13T11:25:25;4.13;;;1.75;;
21424;SDS011;10873;51.132;16.848;2023-07-13T11:28:04;4.55;;;1.60;;
21424;SDS011;10873;51.132;16.848;2023-07-13T11:30:39;4.60;;;1.77;;
21424;SDS011;10873;51.132;16.848;2023-07-13T11:33:14;2.38;;;1.63;;
21424;SDS011;10873;51.132;16.848;2023-07-13T11:35:51;3.90;;;1.73;;
21424;SDS011;10873;51.132;16.848;2023-07-13T11:38:27;4.30;;;1.98;;
21424;SDS011;10873;51.132;16.848;2023-07-13T11:40:58;2.85;;;1.70;;
21424;SDS011;10873;51.132;16.848;2023-07-13T11:43:28;2.95;;;1.90;;
21424;SDS011;10873;51.132;16.848;2023-07-13T11:45:55;6.20;;;2.40;;
21424;SDS011;10873;51.132;16.848;2023-07-13T11:48:22;2.65;;;1.77;;
21424;SDS011;10873;51.132;16.848;2023-07-13T11:50:53;4.53;;;2.00;;
21424;SDS011;10873;51.132;16.848;2023-07-13T11:53:22;3.10;;;2.05;;
21424;SDS011;10873;51.132;16.848;2023-07-13T11:55:51;4.05;;;2.03;;
21424;SDS011;10873;51.132;16.848;2023-07-13T11:58:19;5.40;;;2.13;;
21424;SDS011;10873;51.132;16.848;2023-07-13T12:00:49;4.40;;;2.17;;
21424;SDS011;10873;51.132;16.848;2023-07-13T12:03:17;3.55;;;2.20;;
21424;SDS011;10873;51.132;16.848;2023-07-13T12:05:55;5.03;;;2.42;;
21424;SDS011;10873;51.132;16.848;2023-07-13T12:08:23;4.95;;;2.30;;
21424;SDS011;10873;51.132;16.848;2023-07-13T12:10:55;4.85;;;2.55;;
21424;SDS011;10873;51.132;16.848;2023-07-13T12:13:23;5.50;;;1.98;;
21424;SDS011;10873;51.132;16.848;2023-07-13T12:15:51;4.13;;;2.15;;
21424;SDS011;10873;51.132;16.848;2023-07-13T12:18:20;5.85;;;2.65;;
21424;SDS011;10873;51.132;16.848;2023-07-13T12:20:49;7.07;;;2.40;;
21424;SDS011;10873;51.132;16.848;2023-07-13T12:23:21;5.97;;;2.20;;
21424;SDS011;10873;51.132;16.848;2023-07-13T12:25:50;5.57;;;2.92;;
21424;SDS011;10873;51.132;16.848;2023-07-13T12:28:20;14.43;;;2.55;;
21424;SDS011;10873;51.132;16.848;2023-07-13T12:30:49;4.95;;;2.63;;
21424;SDS011;10873;51.132;16.848;2023-07-13T12:33:23;4.70;;;2.53;;
21424;SDS011;10873;51.132;16.848;2023-07-13T12:35:53;6.35;;;2.60;;
21424;SDS011;10873;51.132;16.848;2023-07-13T12:38:20;7.18;;;2.55;;
21424;SDS011;10873;51.132;16.848;2023-07-13T12:40:50;6.30;;;2.58;;
21424;SDS011;10873;51.132;16.848;2023-07-13T12:43:17;6.38;;;2.42;;
21424;SDS011;10873;51.132;16.848;2023-07-13T12:45:57;4.65;;;2.28;;
21424;SDS011;10873;51.132;16.848;2023-07-13T12:48:25;5.22;;;2.67;;
21424;SDS011;10873;51.132;16.848;2023-07-13T12:50:51;4.95;;;2.63;;
21424;SDS011;10873;51.132;16.848;2023-07-13T12:53:20;4.13;;;1.98;;
21424;SDS011;10873;51.132;16.848;2023-07-13T12:55:50;4.40;;;2.25;;
21424;SDS011;10873;51.132;16.848;2023-07-13T12:58:19;5.28;;;2.28;;
21424;SDS011;10873;51.132;16.848;2023-07-13T13:00:53;4.20;;;2.63;;
21424;SDS011;10873;51.132;16.848;2023-07-13T13:03:24;6.57;;;2.20;;
21424;SDS011;10873;51.132;16.848;2023-07-13T13:05:57;6.63;;;2.35;;
21424;SDS011;10873;51.132;16.848;2023-07-13T13:08:25;8.05;;;2.55;;
21424;SDS011;10873;51.132;16.848;2023-07-13T13:10:51;3.22;;;2.10;;
21424;SDS011;10873;51.132;16.848;2023-07-13T13:13:17;7.05;;;2.10;;
21424;SDS011;10873;51.132;16.848;2023-07-13T13:15:43;2.88;;;2.10;;
21424;SDS011;10873;51.132;16.848;2023-07-13T13:18:14;4.82;;;2.40;;
21424;SDS011;10873;51.132;16.848;2023-07-13T13:20:43;5.32;;;2.28;;
21424;SDS011;10873;51.132;16.848;2023-07-13T13:23:10;3.97;;;2.40;;
21424;SDS011;10873;51.132;16.848;2023-07-13T13:25:38;4.07;;;2.33;;
21424;SDS011;10873;51.132;16.848;2023-07-13T13:28:04;3.65;;;2.00;;
21424;SDS011;10873;51.132;16.848;2023-07-13T13:30:30;3.88;;;2.58;;
21424;SDS011;10873;51.132;16.848;2023-07-13T13:32:56;7.43;;;2.35;;
21424;SDS011;10873;51.132;16.848;2023-07-13T13:35:22;3.35;;;2.15;;
21424;SDS011;10873;51.132;16.848;2023-07-13T13:37:50;4.85;;;2.42;;
21424;SDS011;10873;51.132;16.848;2023-07-13T13:40:17;4.05;;;2.00;;
21424;SDS011;10873;51.132;16.848;2023-07-13T13:42:46;2.92;;;1.90;;
21424;SDS011;10873;51.132;16.848;2023-07-13T13:45:13;3.20;;;1.90;;
21424;SDS011;10873;51.132;16.848;2023-07-13T13:47:39;4.70;;;1.80;;
21424;SDS011;10873;51.132;16.848;2023-07-13T13:50:11;4.07;;;1.75;;
21424;SDS011;10873;51.132;16.848;2023-07-13T13:52:39;4.82;;;1.73;;
21424;SDS011;10873;51.132;16.848;2023-07-13T13:55:12;3.85;;;2.40;;
21424;SDS011;10873;51.132;16.848;2023-07-13T13:57:39;2.88;;;1.67;;
21424;SDS011;10873;51.132;16.848;2023-07-13T14:00:05;3.33;;;1.80;;
21424;SDS011;10873;51.132;16.848;2023-07-13T14:02:34;4.78;;;2.60;;
21424;SDS011;10873;51.132;16.848;2023-07-13T14:05:01;6.22;;;2.70;;
21424;SDS011;10873;51.132;16.848;2023-07-13T14:07:28;3.67;;;2.67;;
21424;SDS011;10873;51.132;16.848;2023-07-13T14:09:57;4.90;;;3.00;;
21424;SDS011;10873;51.132;16.848;2023-07-13T14:12:25;6.88;;;3.80;;
21424;SDS011;10873;51.132;16.848;2023-07-13T14:14:54;6.65;;;3.70;;
21424;SDS011;10873;51.132;16.848;2023-07-13T14:17:21;6.82;;;4.10;;
21424;SDS011;10873;51.132;16.848;2023-07-13T14:19:49;9.00;;;3.67;;
21424;SDS011;10873;51.132;16.848;2023-07-13T14:22:17;8.05;;;4.30;;
21424;SDS011;10873;51.132;16.848;2023-07-13T14:24:44;10.02;;;4.88;;
21424;SDS011;10873;51.132;16.848;2023-07-13T14:27:10;10.02;;;4.90;;
21424;SDS011;10873;51.132;16.848;2023-07-13T14:29:38;12.20;;;5.45;;
21424;SDS011;10873;51.132;16.848;2023-07-13T14:32:07;10.73;;;5.40;;
21424;SDS011;10873;51.132;16.848;2023-07-13T14:34:36;8.57;;;5.32;;
21424;SDS011;10873;51.132;16.848;2023-07-13T14:37:02;10.95;;;6.05;;
21424;SDS011;10873;51.132;16.848;2023-07-13T14:39:29;11.05;;;6.88;;
21424;SDS011;10873;51.132;16.848;2023-07-13T14:41:56;10.85;;;5.97;;